createdAt,value
2022-12-29T00:01:21.388Z,1.50
2022-12-29T00:03:51.532Z,1.30
2022-12-29T00:06:20.489Z,1.42
2022-12-29T00:08:49.150Z,1.30
2022-12-29T00:11:20.162Z,1.60
2022-12-29T00:14:06.834Z,1.25
2022-12-29T00:16:36.445Z,1.30
2022-12-29T00:19:07.251Z,1.20
2022-12-29T00:21:53.400Z,1.30
2022-12-29T00:24:41.498Z,1.23
2022-12-29T00:27:32.044Z,1.50
2022-12-29T00:30:18.478Z,1.30
2022-12-29T00:33:04.382Z,1.35
2022-12-29T00:35:37.518Z,1.30
2022-12-29T00:38:27.744Z,1.20
2022-12-29T00:41:14.357Z,1.38
2022-12-29T00:44:00.358Z,1.30
2022-12-29T00:46:29.725Z,1.33
2022-12-29T00:49:24.363Z,1.30
2022-12-29T00:51:55.020Z,1.40
2022-12-29T00:54:23.965Z,1.20
2022-12-29T00:56:53.989Z,1.30
2022-12-29T00:59:25.031Z,1.30
2022-12-29T01:45:52.664Z,1.40
2022-12-29T01:48:22.840Z,1.15
2022-12-29T01:50:55.430Z,1.23
2022-12-29T01:53:29.224Z,1.15
2022-12-29T01:56:03.719Z,1.13
2022-12-29T01:58:35.999Z,1.30
2022-12-29T02:46:56.061Z,1.27
2022-12-29T02:49:33.807Z,1.23
2022-12-29T02:52:05.889Z,1.20
2022-12-29T02:54:43.373Z,1.23
2022-12-29T02:57:29.499Z,1.23
2022-12-29T03:00:02.272Z,1.40
2022-12-29T03:46:38.133Z,1.10
2022-12-29T03:49:07.033Z,1.15
2022-12-29T03:51:35.960Z,1.30
2022-12-29T03:54:07.648Z,1.10
2022-12-29T03:56:36.319Z,1.30
2022-12-29T03:59:05.993Z,1.20
2022-12-29T04:45:34.403Z,1.20
2022-12-29T04:48:12.379Z,1.17
2022-12-29T04:51:01.430Z,1.08
2022-12-29T04:53:37.199Z,1.10
2022-12-29T04:56:07.226Z,1.15
2022-12-29T04:58:36.163Z,1.05
2022-12-29T05:30:20.244Z,1.00
2022-12-29T05:32:49.303Z,1.10
2022-12-29T05:35:21.510Z,1.23
2022-12-29T05:37:50.107Z,1.15
2022-12-29T05:40:18.971Z,1.30
2022-12-29T05:42:47.615Z,1.10
2022-12-29T05:45:35.249Z,1.13
2022-12-29T05:48:35.943Z,1.25
2022-12-29T05:51:15.534Z,1.00
2022-12-29T05:53:51.817Z,1.13
2022-12-29T05:56:20.660Z,1.10
2022-12-29T05:58:55.950Z,1.50
2022-12-29T06:01:26.825Z,1.00
2022-12-29T06:03:56.546Z,1.20
2022-12-29T06:06:25.348Z,1.17
2022-12-29T06:08:55.119Z,1.13
2022-12-29T06:11:23.786Z,0.95
2022-12-29T06:13:57.008Z,1.10
2022-12-29T06:16:28.214Z,1.20
2022-12-29T06:19:00.915Z,1.10
2022-12-29T06:21:29.627Z,1.20
2022-12-29T06:24:02.431Z,1.20
2022-12-29T06:26:31.097Z,0.98
2022-12-29T06:28:59.703Z,1.10
2022-12-29T06:31:29.801Z,1.08
2022-12-29T06:34:01.264Z,1.10
2022-12-29T06:36:32.169Z,1.10
2022-12-29T06:39:00.804Z,1.17
2022-12-29T06:41:32.363Z,1.40
2022-12-29T06:44:25.854Z,1.20
2022-12-29T06:47:05.097Z,1.20
2022-12-29T06:49:33.806Z,1.20
2022-12-29T06:52:09.089Z,1.33
2022-12-29T06:54:41.252Z,1.00
2022-12-29T06:57:10.052Z,1.10
2022-12-29T06:59:39.426Z,1.02
2022-12-29T07:02:11.506Z,1.15
2022-12-29T07:04:40.367Z,1.10
2022-12-29T07:07:09.038Z,1.23
2022-12-29T07:09:37.675Z,1.20
2022-12-29T07:12:06.995Z,1.13
2022-12-29T07:14:42.591Z,1.20
2022-12-29T07:17:13.706Z,1.05
2022-12-29T07:19:42.690Z,1.13
2022-12-29T07:22:12.580Z,1.20
2022-12-29T07:24:41.402Z,1.08
2022-12-29T07:27:09.970Z,1.20
2022-12-29T07:29:39.654Z,1.20
2022-12-29T07:32:08.511Z,1.10
2022-12-29T07:34:40.483Z,1.20
2022-12-29T07:37:09.290Z,1.00
2022-12-29T07:39:37.875Z,1.02
2022-12-29T07:42:06.545Z,1.00
2022-12-29T07:44:46.725Z,1.05
2022-12-29T07:47:27.830Z,1.10
2022-12-29T07:49:57.902Z,1.10
2022-12-29T07:52:26.509Z,1.10
2022-12-29T07:54:55.113Z,1.20
2022-12-29T07:57:29.656Z,1.10
2022-12-29T08:00:00.359Z,1.08
2022-12-29T08:46:36.383Z,0.98
2022-12-29T08:49:05.169Z,0.88
2022-12-29T08:51:34.019Z,1.10
2022-12-29T08:54:02.864Z,1.10
2022-12-29T08:56:32.018Z,1.00
2022-12-29T08:59:02.345Z,1.00
2022-12-29T09:47:13.798Z,0.90
2022-12-29T09:49:48.478Z,1.00
2022-12-29T09:52:21.579Z,1.20
2022-12-29T09:55:02.446Z,1.05
2022-12-29T09:57:40.618Z,1.10
2022-12-29T10:47:05.647Z,0.90
2022-12-29T10:49:39.924Z,0.93
2022-12-29T10:52:10.559Z,0.98
2022-12-29T10:54:46.301Z,0.90
2022-12-29T10:57:24.480Z,1.00
2022-12-29T10:59:53.418Z,1.10
2022-12-29T11:02:46.826Z,0.90
2022-12-29T11:05:25.069Z,1.05
2022-12-29T11:07:58.424Z,1.00
2022-12-29T11:10:37.905Z,1.10
2022-12-29T11:13:12.947Z,1.13
2022-12-29T11:15:43.177Z,0.90
2022-12-29T11:18:24.861Z,1.30
2022-12-29T11:20:56.953Z,1.10
2022-12-29T11:23:32.614Z,1.02
2022-12-29T11:26:21.372Z,0.90
2022-12-29T11:29:27.444Z,0.85
2022-12-29T11:31:59.090Z,1.00
2022-12-29T11:34:34.492Z,0.90
2022-12-29T11:37:07.187Z,1.00
2022-12-29T11:39:43.001Z,1.20
2022-12-29T11:42:18.565Z,1.02
2022-12-29T11:44:49.332Z,0.93
2022-12-29T11:47:27.732Z,1.20
2022-12-29T11:50:01.389Z,1.10
2022-12-29T11:52:35.972Z,1.00
2022-12-29T11:55:07.447Z,0.98
2022-12-29T11:57:37.574Z,1.08
2022-12-29T12:00:18.384Z,1.10
2022-12-29T12:02:56.684Z,1.10
2022-12-29T12:05:35.684Z,1.40
2022-12-29T12:08:17.576Z,1.30
2022-12-29T12:10:54.476Z,1.10
2022-12-29T12:13:30.400Z,1.40
2022-12-29T12:16:06.178Z,1.08
2022-12-29T12:18:43.724Z,1.40
2022-12-29T12:21:20.635Z,1.35
2022-12-29T12:24:11.541Z,1.35
2022-12-29T12:26:51.621Z,1.25
2022-12-29T12:29:26.822Z,1.48
2022-12-29T12:31:59.857Z,1.25
2022-12-29T12:34:34.899Z,1.30
2022-12-29T12:37:41.492Z,1.60
2022-12-29T12:40:42.398Z,1.40
2022-12-29T12:43:31.803Z,1.60
2022-12-29T12:46:14.968Z,1.35
2022-12-29T12:48:58.967Z,1.40
2022-12-29T12:51:35.813Z,1.55
2022-12-29T12:54:18.908Z,1.30
2022-12-29T12:56:56.272Z,1.40
2022-12-29T12:59:39.202Z,1.40
2022-12-29T13:02:23.431Z,1.63
2022-12-29T13:05:24.270Z,1.35
2022-12-29T13:08:14.053Z,1.30
2022-12-29T13:10:53.533Z,1.40
2022-12-29T13:13:46.092Z,1.20
2022-12-29T13:16:25.105Z,1.30
2022-12-29T13:19:01.356Z,1.58
2022-12-29T13:21:42.062Z,1.67
2022-12-29T13:24:20.638Z,1.27
2022-12-29T13:26:55.487Z,1.40
2022-12-29T13:29:33.204Z,1.40
2022-12-29T13:32:13.060Z,1.25
2022-12-29T13:34:49.511Z,1.45
2022-12-29T13:37:22.466Z,1.50
2022-12-29T13:39:54.300Z,1.35
2022-12-29T13:42:25.262Z,1.42
2022-12-29T13:44:59.671Z,1.30
2022-12-29T13:47:33.296Z,1.30
2022-12-29T13:50:04.732Z,1.40
2022-12-29T13:52:39.887Z,1.35
2022-12-29T13:55:23.367Z,1.27
2022-12-29T13:58:02.428Z,1.30
2022-12-29T14:00:34.375Z,1.48
2022-12-29T14:03:30.297Z,1.30
2022-12-29T14:06:14.278Z,1.52
2022-12-29T14:08:43.294Z,1.40
2022-12-29T14:11:13.472Z,1.65
2022-12-29T14:13:45.474Z,1.60
2022-12-29T14:16:33.692Z,1.50
2022-12-29T14:19:15.792Z,1.50
2022-12-29T14:21:51.962Z,1.30
2022-12-29T14:24:42.612Z,1.50
2022-12-29T14:27:46.628Z,1.70
2022-12-29T14:30:51.210Z,1.50
2022-12-29T14:33:21.266Z,1.40
2022-12-29T14:35:53.221Z,1.52
2022-12-29T14:38:28.475Z,1.58
2022-12-29T14:41:21.021Z,1.35
2022-12-29T14:44:14.519Z,1.52
2022-12-29T14:46:57.782Z,1.45
2022-12-29T14:49:29.495Z,1.30
2022-12-29T14:52:09.382Z,1.50
2022-12-29T14:54:49.327Z,1.30
2022-12-29T14:57:37.305Z,1.67
2022-12-29T15:00:16.504Z,1.55
2022-12-29T15:02:50.843Z,1.35
2022-12-29T15:05:34.223Z,1.50
2022-12-29T15:08:04.472Z,1.20
2022-12-29T15:10:40.341Z,1.63
2022-12-29T15:13:17.685Z,1.50
2022-12-29T15:15:46.366Z,1.25
2022-12-29T15:18:24.632Z,1.63
2022-12-29T15:20:56.612Z,1.70
2022-12-29T15:23:26.416Z,1.60
2022-12-29T15:25:59.059Z,1.65
2022-12-29T15:28:29.324Z,1.67
2022-12-29T15:31:03.429Z,1.52
2022-12-29T15:33:33.442Z,1.58
2022-12-29T15:36:11.865Z,1.60
2022-12-29T15:38:41.001Z,1.70
2022-12-29T15:41:19.979Z,1.83
2022-12-29T15:43:58.067Z,1.75
2022-12-29T15:46:26.937Z,1.70
2022-12-29T15:48:57.760Z,1.75
2022-12-29T15:51:32.796Z,2.00
2022-12-29T15:54:01.677Z,2.10
2022-12-29T15:56:32.428Z,1.85
2022-12-29T15:59:01.834Z,1.77
2022-12-29T16:01:33.793Z,2.00
2022-12-29T16:04:07.575Z,1.90
2022-12-29T16:06:37.910Z,1.88
2022-12-29T16:09:08.763Z,1.70
2022-12-29T16:11:40.374Z,2.22
2022-12-29T16:14:12.369Z,1.77
2022-12-29T16:16:43.520Z,1.95
2022-12-29T16:19:17.821Z,1.90
2022-12-29T16:21:47.768Z,1.80
2022-12-29T16:24:19.511Z,2.28
2022-12-29T16:26:51.482Z,1.92
2022-12-29T16:29:23.155Z,2.10
2022-12-29T16:32:01.541Z,2.15
2022-12-29T16:34:34.121Z,2.30
2022-12-29T16:37:04.418Z,2.58
2022-12-29T16:39:38.005Z,2.10
2022-12-29T16:42:51.409Z,2.10
2022-12-29T16:45:59.182Z,2.10
2022-12-29T16:48:29.735Z,1.92
2022-12-29T16:51:07.224Z,2.20
2022-12-29T16:53:39.011Z,2.30
2022-12-29T16:56:16.578Z,2.28
2022-12-29T16:58:49.548Z,2.55
2022-12-29T17:01:20.336Z,2.38
2022-12-29T17:03:53.429Z,2.20
2022-12-29T17:06:24.933Z,2.38
2022-12-29T17:08:54.737Z,2.40
2022-12-29T17:11:49.275Z,2.28
2022-12-29T17:14:39.416Z,2.55
2022-12-29T17:17:15.011Z,2.25
2022-12-29T17:19:46.956Z,2.50
2022-12-29T17:22:20.279Z,2.58
2022-12-29T17:24:49.138Z,2.47
2022-12-29T17:27:28.172Z,2.75
2022-12-29T17:29:59.571Z,2.60
2022-12-29T17:32:28.214Z,2.60
2022-12-29T17:34:56.992Z,2.45
2022-12-29T17:37:38.711Z,2.92
2022-12-29T17:40:09.890Z,2.58
2022-12-29T17:42:44.123Z,2.78
2022-12-29T17:45:17.205Z,2.35
2022-12-29T17:47:46.426Z,2.53
2022-12-29T17:50:16.471Z,3.00
2022-12-29T17:52:51.207Z,2.60
2022-12-29T17:55:21.593Z,2.60
2022-12-29T17:57:50.248Z,2.50
2022-12-29T18:00:20.814Z,2.85
2022-12-29T18:02:50.279Z,2.55
2022-12-29T18:05:22.064Z,2.80
2022-12-29T18:07:54.431Z,2.50
2022-12-29T18:10:24.733Z,2.67
2022-12-29T18:12:55.027Z,2.40
2022-12-29T18:15:25.392Z,2.75
2022-12-29T18:18:00.005Z,2.42
2022-12-29T18:20:29.929Z,2.70
2022-12-29T18:23:00.005Z,2.90
2022-12-29T18:25:33.780Z,2.92
2022-12-29T18:28:02.432Z,3.00
2022-12-29T18:30:31.077Z,2.95
2022-12-29T18:32:59.935Z,3.00
2022-12-29T18:35:33.971Z,2.80
2022-12-29T18:38:05.974Z,2.80
2022-12-29T18:40:35.859Z,2.63
2022-12-29T18:43:05.150Z,2.58
2022-12-29T18:45:35.091Z,2.78
2022-12-29T18:48:04.010Z,3.20
2022-12-29T18:50:32.661Z,2.72
2022-12-29T18:53:04.144Z,2.78
2022-12-29T18:55:34.393Z,2.95
2022-12-29T18:58:02.968Z,2.67
2022-12-29T19:00:31.633Z,2.80
2022-12-29T19:03:00.632Z,2.90
2022-12-29T19:05:32.146Z,2.80
2022-12-29T19:08:00.853Z,2.90
2022-12-29T19:10:30.097Z,2.63
2022-12-29T19:13:00.577Z,3.28
2022-12-29T19:15:30.778Z,2.90
2022-12-29T19:18:41.995Z,2.90
2022-12-29T19:20:52.556Z,3.17
2022-12-29T19:23:23.114Z,3.33
2022-12-29T19:25:52.557Z,3.22
2022-12-29T19:28:24.551Z,2.80
2022-12-29T19:30:57.055Z,2.95
2022-12-29T19:33:26.346Z,2.80
2022-12-29T19:35:59.488Z,3.10
2022-12-29T19:38:28.371Z,3.13
2022-12-29T19:40:57.104Z,2.90
2022-12-29T19:43:27.216Z,2.80
2022-12-29T19:45:55.871Z,3.13
2022-12-29T19:48:24.665Z,2.65
2022-12-29T19:50:53.275Z,2.78
2022-12-29T19:53:22.214Z,2.70
2022-12-29T19:55:50.968Z,3.13
2022-12-29T19:58:19.735Z,2.95
2022-12-29T20:00:50.007Z,3.00
2022-12-29T20:03:19.336Z,2.88
2022-12-29T20:05:51.539Z,3.00
2022-12-29T20:08:20.214Z,2.80
2022-12-29T20:10:59.110Z,2.63
2022-12-29T20:13:27.788Z,3.05
2022-12-29T20:16:01.849Z,2.70
2022-12-29T20:18:31.364Z,2.88
2022-12-29T20:21:05.131Z,2.80
2022-12-29T20:23:34.986Z,3.13
2022-12-29T20:26:04.019Z,2.80
2022-12-29T20:28:33.129Z,2.80
2022-12-29T20:31:06.669Z,3.05
2022-12-29T20:33:36.900Z,3.10
2022-12-29T20:36:08.210Z,2.42
2022-12-29T20:38:37.442Z,3.05
2022-12-29T20:41:06.418Z,2.90
2022-12-29T20:43:35.766Z,3.03
2022-12-29T20:46:06.416Z,2.47
2022-12-29T20:48:35.718Z,2.95
2022-12-29T20:51:04.465Z,2.72
2022-12-29T20:53:34.866Z,3.10
2022-12-29T20:56:06.622Z,2.70
2022-12-29T20:58:59.955Z,2.80
2022-12-29T21:01:26.891Z,2.75
2022-12-29T21:03:55.623Z,2.80
2022-12-29T21:06:24.337Z,3.08
2022-12-29T21:08:55.013Z,2.90
2022-12-29T21:11:24.631Z,2.80
2022-12-29T21:13:53.445Z,2.40
2022-12-29T21:16:22.861Z,2.97
2022-12-29T21:18:53.099Z,2.90
2022-12-29T21:21:24.394Z,2.58
2022-12-29T21:23:54.833Z,2.47
2022-12-29T21:26:25.287Z,2.90
2022-12-29T21:28:54.387Z,2.80
2022-12-29T21:31:28.119Z,2.75
2022-12-29T21:33:58.783Z,2.80
2022-12-29T21:36:27.905Z,2.60
2022-12-29T21:38:58.192Z,2.80
2022-12-29T21:41:27.232Z,3.03
2022-12-29T21:44:13.407Z,2.80
2022-12-29T21:46:44.072Z,2.65
2022-12-29T21:49:14.101Z,2.75
2022-12-29T21:51:53.521Z,2.95
2022-12-29T21:54:41.806Z,3.03
2022-12-29T21:57:13.411Z,3.00
2022-12-29T22:00:03.692Z,2.70
2022-12-29T22:02:55.081Z,2.88
2022-12-29T22:05:42.629Z,2.65
2022-12-29T22:08:28.845Z,3.00
2022-12-29T22:11:15.049Z,2.80
2022-12-29T22:13:43.719Z,2.70
2022-12-29T22:16:15.167Z,2.55
2022-12-29T22:18:43.806Z,2.42
2022-12-29T22:21:13.795Z,3.00
2022-12-29T22:23:42.750Z,2.70
2022-12-29T22:26:14.374Z,2.80
2022-12-29T22:28:46.248Z,2.50
2022-12-29T22:31:27.474Z,2.67
2022-12-29T22:33:57.827Z,2.40
2022-12-29T22:36:28.723Z,2.60
2022-12-29T22:38:57.710Z,2.50
2022-12-29T22:41:26.506Z,2.33
2022-12-29T22:43:55.735Z,2.40
2022-12-29T22:46:24.996Z,2.70
2022-12-29T22:48:53.752Z,2.28
2022-12-29T22:51:22.583Z,2.35
2022-12-29T22:53:52.727Z,2.67
2022-12-29T22:56:21.615Z,2.65
2022-12-29T22:58:50.510Z,2.50
2022-12-29T23:45:21.306Z,2.53
2022-12-29T23:47:49.913Z,2.38
2022-12-29T23:50:18.550Z,2.50
2022-12-29T23:52:47.384Z,2.15
2022-12-29T23:55:16.172Z,2.20
2022-12-29T23:57:44.746Z,2.50
